createdAt,value
2018-09-09T00:00:35.025Z,67.62
2018-09-09T00:03:05.283Z,67.47
2018-09-09T00:05:35.788Z,67.25
2018-09-09T00:08:06.645Z,66.77
2018-09-09T00:10:37.144Z,66.66
2018-09-09T00:13:07.813Z,65.73
2018-09-09T00:15:38.575Z,64.37
2018-09-09T00:18:09.415Z,62.81
2018-09-09T00:20:40.011Z,60.72
2018-09-09T00:23:10.720Z,59.09
2018-09-09T00:25:41.244Z,60.43
2018-09-09T00:28:12.054Z,61.72
2018-09-09T00:30:42.564Z,62.39
2018-09-09T00:33:13.044Z,63.10
2018-09-09T00:35:43.576Z,62.84
2018-09-09T00:38:14.166Z,63.20
2018-09-09T00:40:44.719Z,62.86
2018-09-09T00:43:15.247Z,62.80
2018-09-09T00:45:46.085Z,62.44
2018-09-09T00:48:16.577Z,62.63
2018-09-09T00:50:52.099Z,62.39
2018-09-09T00:53:46.068Z,63.01
2018-09-09T00:56:17.392Z,63.55
2018-09-09T00:58:49.909Z,63.10
2018-09-09T01:01:20.636Z,62.07
2018-09-09T01:03:51.819Z,62.46
2018-09-09T01:06:22.677Z,62.12
2018-09-09T01:08:54.075Z,60.52
2018-09-09T01:11:24.920Z,59.97
2018-09-09T01:13:55.640Z,59.65
2018-09-09T01:16:26.279Z,59.06
2018-09-09T01:18:56.880Z,58.54
2018-09-09T01:21:27.903Z,59.93
2018-09-09T01:23:58.624Z,62.10
2018-09-09T01:26:29.308Z,61.66
2018-09-09T01:28:59.802Z,60.06
2018-09-09T01:31:30.339Z,58.81
2018-09-09T01:34:01.589Z,60.15
2018-09-09T01:36:32.168Z,61.03
2018-09-09T01:39:02.903Z,60.57
2018-09-09T01:41:34.639Z,60.92
2018-09-09T01:44:05.178Z,61.55
2018-09-09T01:46:35.857Z,62.82
2018-09-09T01:49:06.964Z,62.04
2018-09-09T01:51:37.181Z,61.79
2018-09-09T01:54:07.960Z,61.55
2018-09-09T01:56:38.283Z,62.01
2018-09-09T01:59:10.453Z,62.42
2018-09-09T02:01:41.084Z,63.37
2018-09-09T02:04:11.958Z,63.52
2018-09-09T02:06:42.452Z,65.08
2018-09-09T02:09:14.156Z,65.37
2018-09-09T02:11:45.452Z,65.04
2018-09-09T02:14:16.139Z,65.93
2018-09-09T02:16:46.355Z,67.00
2018-09-09T02:19:16.857Z,68.20
2018-09-09T02:21:47.445Z,68.96
2018-09-09T02:24:17.954Z,68.83
2018-09-09T02:26:48.608Z,69.22
2018-09-09T02:29:19.320Z,67.49
2018-09-09T02:31:49.905Z,65.66
2018-09-09T02:34:20.419Z,67.41
2018-09-09T02:36:50.932Z,68.42
2018-09-09T02:39:21.752Z,68.90
2018-09-09T02:41:52.588Z,68.56
2018-09-09T02:44:24.931Z,68.45
2018-09-09T02:46:55.650Z,68.45
2018-09-09T02:49:26.016Z,68.23
2018-09-09T02:51:56.556Z,69.44
2018-09-09T02:54:27.467Z,70.31
2018-09-09T02:56:58.344Z,69.56
2018-09-09T02:59:29.070Z,67.11
2018-09-09T03:01:59.617Z,66.33
2018-09-09T03:04:30.109Z,66.22
2018-09-09T03:07:00.628Z,66.59
2018-09-09T03:09:31.320Z,66.94
2018-09-09T03:12:01.700Z,66.04
2018-09-09T03:14:33.622Z,64.66
2018-09-09T03:17:04.429Z,63.95
2018-09-09T03:19:35.138Z,63.62
2018-09-09T03:22:05.639Z,63.81
2018-09-09T03:24:36.238Z,64.31
2018-09-09T03:27:06.798Z,64.72
2018-09-09T03:29:38.043Z,65.14
2018-09-09T03:33:11.436Z,66.14
2018-09-09T03:35:41.915Z,66.09
2018-09-09T03:38:12.646Z,66.26
2018-09-09T03:40:42.949Z,67.16
2018-09-09T03:43:13.780Z,68.37
2018-09-09T03:45:44.310Z,70.17
2018-09-09T03:48:14.921Z,70.16
2018-09-09T03:50:45.387Z,69.96
2018-09-09T03:53:16.295Z,69.26
2018-09-09T03:55:46.780Z,68.84
2018-09-09T03:58:18.759Z,69.63
2018-09-09T04:00:49.277Z,69.93
2018-09-09T04:03:19.526Z,71.17
2018-09-09T04:05:51.322Z,71.85
2018-09-09T04:08:21.860Z,72.20
2018-09-09T04:10:53.433Z,72.64
2018-09-09T04:13:23.703Z,72.61
2018-09-09T04:15:54.232Z,72.49
2018-09-09T04:18:24.746Z,72.22
2018-09-09T04:20:55.444Z,72.18
2018-09-09T04:23:26.248Z,71.98
2018-09-09T04:25:56.798Z,71.94
2018-09-09T04:28:27.314Z,71.88
2018-09-09T04:30:57.952Z,71.87
2018-09-09T04:33:29.071Z,72.03
2018-09-09T04:35:59.566Z,72.23
2018-09-09T04:38:30.059Z,72.31
2018-09-09T04:41:00.573Z,71.64
2018-09-09T04:43:30.799Z,71.12
2018-09-09T04:46:01.360Z,70.51
2018-09-09T04:48:31.873Z,70.30
2018-09-09T04:51:02.440Z,69.88
2018-09-09T04:53:32.925Z,70.13
2018-09-09T04:56:03.479Z,69.74
2018-09-09T04:58:34.110Z,69.52
2018-09-09T05:01:04.620Z,68.67
2018-09-09T05:03:35.687Z,68.58
2018-09-09T05:06:06.395Z,68.28
2018-09-09T05:08:36.750Z,68.08
2018-09-09T05:11:07.566Z,67.84
2018-09-09T05:13:37.820Z,67.12
2018-09-09T05:16:08.340Z,67.00
2018-09-09T05:18:38.599Z,66.09
2018-09-09T05:21:09.951Z,66.04
2018-09-09T05:23:40.554Z,65.72
2018-09-09T05:26:11.048Z,65.61
2018-09-09T05:28:41.616Z,65.60
2018-09-09T05:31:12.108Z,66.04
2018-09-09T05:33:42.963Z,65.37
2018-09-09T05:36:13.800Z,65.45
2018-09-09T05:38:44.040Z,65.55
2018-09-09T05:41:14.912Z,67.31
2018-09-09T05:43:46.137Z,67.50
2018-09-09T05:46:16.969Z,67.40
2018-09-09T05:48:47.490Z,66.41
2018-09-09T05:51:17.909Z,65.49
2018-09-09T05:53:48.433Z,65.37
2018-09-09T05:56:19.171Z,65.23
2018-09-09T05:58:50.728Z,65.16
2018-09-09T06:01:21.295Z,65.48
2018-09-09T06:03:51.549Z,64.93
2018-09-09T06:06:22.064Z,64.88
2018-09-09T06:08:52.563Z,64.51
2018-09-09T06:11:23.135Z,64.58
2018-09-09T06:13:53.953Z,65.54
2018-09-09T06:16:24.448Z,62.62
2018-09-09T06:18:55.360Z,62.13
2018-09-09T06:21:26.147Z,62.14
2018-09-09T06:23:56.677Z,61.87
2018-09-09T06:26:27.414Z,60.87
2018-09-09T06:28:57.727Z,60.44
2018-09-09T06:31:28.268Z,59.98
2018-09-09T06:33:58.538Z,59.96
2018-09-09T06:36:30.049Z,59.78
2018-09-09T06:39:00.365Z,60.73
2018-09-09T06:41:31.269Z,59.72
2018-09-09T06:44:03.078Z,58.52
2018-09-09T06:46:33.580Z,59.51
2018-09-09T06:49:04.649Z,60.17
2018-09-09T06:51:35.229Z,59.41
2018-09-09T06:54:05.800Z,59.24
2018-09-09T06:56:36.302Z,59.21
2018-09-09T06:59:06.585Z,60.23
2018-09-09T07:01:36.802Z,59.76
2018-09-09T07:04:07.348Z,59.92
2018-09-09T07:06:37.831Z,58.86
2018-09-09T07:09:10.121Z,59.70
2018-09-09T07:11:40.708Z,58.83
2018-09-09T07:14:11.532Z,58.57
2018-09-09T07:16:42.142Z,58.35
2018-09-09T07:19:12.697Z,58.87
2018-09-09T07:21:43.961Z,56.74
2018-09-09T07:24:14.594Z,58.06
2018-09-09T07:26:45.124Z,58.57
2018-09-09T07:29:15.398Z,59.10
2018-09-09T07:31:46.164Z,58.34
2018-09-09T07:34:17.173Z,58.03
2018-09-09T07:36:47.861Z,57.45
2018-09-09T07:39:19.949Z,56.44
2018-09-09T07:41:50.533Z,56.07
2018-09-09T07:44:21.256Z,55.84
2018-09-09T07:46:51.758Z,56.11
2018-09-09T07:49:22.519Z,55.13
2018-09-09T07:51:53.246Z,54.89
2018-09-09T07:54:23.661Z,55.18
2018-09-09T07:56:54.187Z,53.79
2018-09-09T07:59:24.721Z,54.32
2018-09-09T08:01:55.436Z,53.81
2018-09-09T08:04:25.819Z,53.91
2018-09-09T08:06:56.371Z,53.54
2018-09-09T08:09:27.183Z,53.83
2018-09-09T08:11:57.795Z,54.45
2018-09-09T08:14:28.471Z,53.62
2018-09-09T08:16:58.998Z,54.03
2018-09-09T08:19:29.488Z,54.21
2018-09-09T08:21:59.975Z,53.74
2018-09-09T08:24:30.717Z,53.75
2018-09-09T08:27:01.196Z,52.82
2018-09-09T08:29:31.829Z,52.26
2018-09-09T08:32:02.878Z,52.43
2018-09-09T08:34:33.697Z,51.84
2018-09-09T08:37:04.288Z,52.60
2018-09-09T08:39:34.552Z,52.30
2018-09-09T08:42:05.338Z,53.05
2018-09-09T08:44:36.084Z,53.18
2018-09-09T08:47:06.632Z,52.22
2018-09-09T08:49:37.169Z,51.50
2018-09-09T08:52:07.763Z,51.47
2018-09-09T08:54:43.469Z,51.19
2018-09-09T08:57:14.520Z,49.58
2018-09-09T08:59:45.092Z,49.56
2018-09-09T09:02:15.698Z,48.84
2018-09-09T09:04:46.434Z,49.58
2018-09-09T09:07:17.041Z,49.93
2018-09-09T09:09:47.742Z,49.50
2018-09-09T09:12:18.027Z,48.97
2018-09-09T09:14:48.746Z,47.56
2018-09-09T09:17:19.437Z,47.48
2018-09-09T09:19:49.951Z,48.40
2018-09-09T09:22:20.163Z,48.53
2018-09-09T09:24:50.395Z,49.49
2018-09-09T09:27:20.940Z,46.61
2018-09-09T09:29:58.487Z,43.65
2018-09-09T09:32:29.023Z,38.06
2018-09-09T09:34:59.333Z,30.35
2018-09-09T09:37:31.003Z,32.44
2018-09-09T09:40:09.673Z,31.56
2018-09-09T09:42:39.958Z,21.95
2018-09-09T09:45:11.704Z,21.86
2018-09-09T09:47:42.457Z,20.93
2018-09-09T09:50:12.972Z,17.86
2018-09-09T09:52:43.212Z,15.17
2018-09-09T09:55:13.811Z,16.61
2018-09-09T09:57:44.552Z,16.78
2018-09-09T10:00:20.399Z,16.84
2018-09-09T10:02:51.038Z,16.02
2018-09-09T10:05:22.092Z,13.25
2018-09-09T10:07:52.749Z,13.41
2018-09-09T10:10:23.001Z,15.00
2018-09-09T10:12:53.516Z,21.09
2018-09-09T10:15:24.021Z,22.44
2018-09-09T10:17:54.277Z,24.26
2018-09-09T10:20:24.772Z,19.67
2018-09-09T10:22:55.317Z,12.97
2018-09-09T10:25:25.916Z,14.29
2018-09-09T10:27:56.498Z,12.53
2018-09-09T10:30:27.689Z,14.64
2018-09-09T10:32:57.949Z,18.68
2018-09-09T10:35:28.467Z,14.51
2018-09-09T10:37:59.219Z,11.20
2018-09-09T10:40:29.951Z,11.33
2018-09-09T10:43:00.199Z,14.98
2018-09-09T10:45:30.768Z,18.71
2018-09-09T10:48:01.524Z,19.40
2018-09-09T10:50:31.720Z,17.66
2018-09-09T10:53:02.400Z,22.44
2018-09-09T10:55:32.900Z,27.33
2018-09-09T10:58:03.762Z,27.50
2018-09-09T11:00:34.800Z,28.24
2018-09-09T11:03:05.475Z,32.00
2018-09-09T11:05:36.852Z,31.25
2018-09-09T11:08:08.160Z,30.91
2018-09-09T11:10:39.008Z,31.57
2018-09-09T11:13:09.839Z,31.27
2018-09-09T11:15:42.274Z,30.29
2018-09-09T11:18:14.333Z,30.95
2018-09-09T11:20:54.809Z,31.54
2018-09-09T11:23:25.360Z,30.44
2018-09-09T11:25:56.160Z,28.67
2018-09-09T11:28:27.673Z,29.48
2018-09-09T11:30:58.166Z,29.21
2018-09-09T11:33:28.639Z,28.87
2018-09-09T11:35:59.129Z,29.07
2018-09-09T11:38:29.328Z,28.46
2018-09-09T11:40:59.937Z,29.24
2018-09-09T11:43:30.819Z,29.96
2018-09-09T11:46:03.065Z,28.68
2018-09-09T11:48:33.883Z,29.21
2018-09-09T11:51:04.454Z,29.79
2018-09-09T11:53:40.184Z,30.23
2018-09-09T11:56:10.776Z,29.55
2018-09-09T11:58:41.022Z,28.43
2018-09-09T12:01:11.592Z,28.93
2018-09-09T12:03:42.324Z,31.11
2018-09-09T12:06:14.416Z,31.68
2018-09-09T12:08:44.944Z,29.91
2018-09-09T12:11:15.805Z,29.14
2018-09-09T12:13:46.716Z,29.05
2018-09-09T12:16:18.079Z,29.89
2018-09-09T12:18:49.074Z,29.80
2018-09-09T12:21:24.936Z,30.10
2018-09-09T12:23:56.455Z,30.70
2018-09-09T12:26:28.248Z,29.43
2018-09-09T12:28:59.578Z,27.47
2018-09-09T12:31:30.155Z,27.83
2018-09-09T12:34:01.400Z,27.69
2018-09-09T12:36:32.611Z,27.56
2018-09-09T12:39:03.625Z,26.99
2018-09-09T12:41:39.275Z,25.33
2018-09-09T12:44:15.375Z,25.41
2018-09-09T12:46:51.185Z,28.39
2018-09-09T12:49:46.010Z,29.46
2018-09-09T12:52:26.685Z,31.24
2018-09-09T12:54:57.739Z,32.00
2018-09-09T12:57:28.455Z,30.90
2018-09-09T12:59:58.800Z,29.31
2018-09-09T13:02:30.453Z,28.37
2018-09-09T13:05:00.961Z,27.33
2018-09-09T13:07:31.406Z,29.31
2018-09-09T13:10:01.944Z,30.30
2018-09-09T13:12:38.563Z,31.21
2018-09-09T13:15:10.846Z,30.76
2018-09-09T13:17:41.100Z,30.82
2018-09-09T13:20:11.647Z,31.93
2018-09-09T13:22:42.742Z,32.41
2018-09-09T13:25:13.317Z,32.56
2018-09-09T13:27:43.846Z,33.09
2018-09-09T13:30:14.412Z,31.93
2018-09-09T13:32:44.762Z,33.27
2018-09-09T13:35:15.496Z,34.04
2018-09-09T13:37:46.205Z,34.06
2018-09-09T13:40:16.799Z,33.72
2018-09-09T13:42:47.377Z,33.13
2018-09-09T13:45:17.996Z,32.32
2018-09-09T13:47:48.792Z,33.08
2018-09-09T13:50:19.738Z,34.02
2018-09-09T13:52:50.145Z,33.75
2018-09-09T13:55:20.867Z,34.09
2018-09-09T13:57:51.511Z,34.32
2018-09-09T14:00:21.844Z,34.00
2018-09-09T14:02:52.369Z,33.51
2018-09-09T14:05:22.812Z,34.28
2018-09-09T14:07:53.064Z,33.90
2018-09-09T14:10:28.992Z,33.10
2018-09-09T14:13:11.684Z,32.02
2018-09-09T14:15:44.736Z,31.25
2018-09-09T14:18:15.720Z,30.94
2018-09-09T14:20:47.271Z,31.26
2018-09-09T14:23:18.000Z,30.15
2018-09-09T14:25:49.139Z,29.93
2018-09-09T14:28:19.682Z,29.17
2018-09-09T14:30:50.270Z,28.93
2018-09-09T14:33:21.959Z,27.31
2018-09-09T14:35:52.569Z,27.92
2018-09-09T14:38:25.321Z,27.55
2018-09-09T14:40:55.900Z,27.06
2018-09-09T14:43:27.085Z,29.89
2018-09-09T14:45:57.601Z,30.79
2018-09-09T14:48:28.416Z,31.32
2018-09-09T14:50:58.777Z,32.21
2018-09-09T14:53:30.045Z,31.18
2018-09-09T14:56:31.376Z,32.06
2018-09-09T14:59:03.618Z,31.93
2018-09-09T15:01:34.745Z,32.24
2018-09-09T15:04:05.543Z,32.66
2018-09-09T15:06:36.627Z,32.49
2018-09-09T15:09:09.223Z,33.18
2018-09-09T15:11:40.578Z,30.99
2018-09-09T15:14:11.016Z,31.40
2018-09-09T15:16:41.850Z,31.96
2018-09-09T15:19:13.217Z,32.66
2018-09-09T15:21:43.738Z,32.47
2018-09-09T15:24:14.005Z,32.96
2018-09-09T15:26:44.323Z,33.81
2018-09-09T15:29:14.781Z,33.98
2018-09-09T15:31:45.324Z,34.47
2018-09-09T15:34:16.233Z,34.41
2018-09-09T15:36:46.960Z,34.78
2018-09-09T15:39:17.498Z,34.41
2018-09-09T15:41:50.334Z,34.41
2018-09-09T15:44:24.296Z,34.89
2018-09-09T15:46:54.781Z,35.07
2018-09-09T15:49:25.292Z,35.31
2018-09-09T15:51:55.934Z,35.49
2018-09-09T15:54:26.744Z,35.02
2018-09-09T15:56:56.982Z,36.05
2018-09-09T15:59:27.633Z,36.17
2018-09-09T16:01:57.811Z,36.52
2018-09-09T16:04:28.040Z,36.51
2018-09-09T16:06:59.240Z,36.97
2018-09-09T16:09:29.889Z,37.13
2018-09-09T16:12:00.358Z,37.20
2018-09-09T16:14:30.919Z,36.90
2018-09-09T16:17:01.950Z,36.15
2018-09-09T16:19:36.760Z,36.36
2018-09-09T16:22:07.289Z,36.14
2018-09-09T16:24:37.824Z,36.20
2018-09-09T16:27:08.339Z,36.97
2018-09-09T16:29:41.246Z,37.33
2018-09-09T16:32:11.842Z,36.92
2018-09-09T16:34:43.396Z,37.93
2018-09-09T16:37:15.170Z,38.03
2018-09-09T16:39:47.103Z,37.91
2018-09-09T16:42:25.454Z,38.24
2018-09-09T16:44:59.076Z,38.01
2018-09-09T16:47:29.955Z,38.39
2018-09-09T16:50:01.407Z,38.79
2018-09-09T16:52:34.088Z,37.88
2018-09-09T16:55:11.992Z,38.02
2018-09-09T16:57:49.012Z,39.11
2018-09-09T17:00:23.361Z,38.89
2018-09-09T17:02:54.520Z,38.88
2018-09-09T17:05:30.882Z,39.64
2018-09-09T17:08:01.476Z,39.68
2018-09-09T17:10:33.926Z,38.80
2018-09-09T17:13:07.072Z,37.55
2018-09-09T17:15:47.207Z,38.71
2018-09-09T17:18:41.542Z,39.18
2018-09-09T17:21:20.357Z,39.12
2018-09-09T17:23:59.511Z,39.37
2018-09-09T17:26:30.487Z,38.88
2018-09-09T17:29:01.740Z,39.14
2018-09-09T17:31:32.065Z,37.76
2018-09-09T17:34:03.124Z,37.27
2018-09-09T17:36:34.065Z,36.61
2018-09-09T17:39:06.604Z,36.77
2018-09-09T17:41:44.410Z,37.83
2018-09-09T17:44:17.443Z,38.59
2018-09-09T17:46:50.736Z,38.84
2018-09-09T17:54:55.903Z,40.98
2018-09-09T17:57:27.418Z,41.24
2018-09-09T17:59:57.930Z,43.03
2018-09-09T18:02:29.598Z,43.52
2018-09-09T18:05:06.916Z,44.74
2018-09-09T18:07:43.749Z,45.83
2018-09-09T18:10:14.712Z,46.44
2018-09-09T18:12:45.723Z,47.70
2018-09-09T18:15:16.290Z,47.08
2018-09-09T18:17:46.664Z,48.10
2018-09-09T18:20:17.456Z,48.42
2018-09-09T18:22:48.070Z,48.85
2018-09-09T18:25:18.633Z,49.11
2018-09-09T18:27:48.901Z,48.44
2018-09-09T18:30:19.648Z,48.93
2018-09-09T18:32:50.272Z,49.95
2018-09-09T18:35:20.633Z,49.84
2018-09-09T18:37:51.189Z,49.51
2018-09-09T18:40:21.852Z,49.99
2018-09-09T18:42:52.425Z,50.54
2018-09-09T18:45:23.144Z,50.80
2018-09-09T18:47:54.184Z,50.44
2018-09-09T18:50:25.827Z,50.26
2018-09-09T18:52:56.336Z,49.70
2018-09-09T18:55:27.316Z,50.82
2018-09-09T18:57:58.356Z,51.46
2018-09-09T19:00:28.908Z,52.61
2018-09-09T19:02:59.172Z,52.92
2018-09-09T19:05:30.500Z,54.05
2018-09-09T19:08:01.292Z,53.53
2018-09-09T19:10:31.789Z,52.88
2018-09-09T19:13:02.292Z,53.15
2018-09-09T19:15:32.949Z,52.82
2018-09-09T19:18:03.581Z,53.29
2018-09-09T19:20:34.197Z,53.59
2018-09-09T19:23:05.419Z,52.56
2018-09-09T19:25:36.208Z,51.48
2018-09-09T19:28:07.284Z,51.58
2018-09-09T19:30:38.165Z,50.40
2018-09-09T19:33:09.617Z,49.79
2018-09-09T19:35:40.330Z,49.73
2018-09-09T19:38:10.605Z,52.06
2018-09-09T19:40:41.198Z,54.53
2018-09-09T19:43:11.492Z,55.33
2018-09-09T19:45:42.019Z,57.36
2018-09-09T19:48:12.880Z,57.55
2018-09-09T19:50:43.714Z,56.15
2018-09-09T19:53:14.457Z,55.13
2018-09-09T19:55:45.003Z,55.16
2018-09-09T19:58:15.602Z,56.75
2018-09-09T20:00:46.300Z,54.68
2018-09-09T20:03:16.778Z,52.75
2018-09-09T20:05:47.144Z,52.32
2018-09-09T20:08:17.672Z,51.42
2018-09-09T20:10:47.982Z,54.35
2018-09-09T20:13:18.436Z,52.48
2018-09-09T20:15:48.705Z,51.44
2018-09-09T20:18:19.368Z,53.68
2018-09-09T20:20:49.693Z,53.55
2018-09-09T20:23:20.328Z,51.29
2018-09-09T20:25:50.898Z,51.73
2018-09-09T20:28:21.892Z,52.33
2018-09-09T20:30:52.517Z,51.69
2018-09-09T20:33:22.762Z,54.16
2018-09-09T20:35:53.284Z,54.63
2018-09-09T20:38:23.527Z,53.00
2018-09-09T20:40:53.732Z,54.28
2018-09-09T20:43:24.268Z,54.73
2018-09-09T20:45:55.161Z,55.10
2018-09-09T20:48:25.952Z,54.32
2018-09-09T20:50:56.518Z,54.41
2018-09-09T20:53:27.237Z,54.60
2018-09-09T20:55:59.957Z,55.09
2018-09-09T20:58:30.467Z,54.21
2018-09-09T21:01:00.964Z,53.14
2018-09-09T21:03:32.168Z,53.06
2018-09-09T21:06:02.993Z,52.56
2018-09-09T21:08:33.669Z,52.38
2018-09-09T21:11:04.577Z,51.84
2018-09-09T21:13:35.078Z,52.88
2018-09-09T21:16:05.999Z,52.60
2018-09-09T21:18:36.664Z,52.04
2018-09-09T21:21:07.057Z,51.18
2018-09-09T21:23:37.615Z,53.87
2018-09-09T21:26:08.445Z,56.17
2018-09-09T21:28:39.578Z,57.72
2018-09-09T21:31:10.232Z,57.49
2018-09-09T21:33:40.735Z,57.43
2018-09-09T21:36:11.150Z,57.98
2018-09-09T21:38:41.731Z,57.18
2018-09-09T21:41:11.927Z,55.00
2018-09-09T21:43:42.571Z,53.50
2018-09-09T21:46:13.615Z,53.85
2018-09-09T21:48:44.514Z,52.12
2018-09-09T21:51:15.260Z,51.22
2018-09-09T21:53:45.900Z,51.32
2018-09-09T21:56:16.634Z,53.03
2018-09-09T21:58:47.147Z,52.20
2018-09-09T22:02:21.094Z,54.26
2018-09-09T22:04:51.811Z,53.09
2018-09-09T22:07:22.692Z,52.73
2018-09-09T22:09:53.296Z,52.50
2018-09-09T22:12:24.086Z,52.00
2018-09-09T22:14:54.595Z,52.39
2018-09-09T22:17:25.106Z,54.55
2018-09-09T22:19:55.355Z,55.56
2018-09-09T22:22:25.863Z,55.70
2018-09-09T22:24:56.818Z,53.76
2018-09-09T22:27:27.307Z,53.63
2018-09-09T22:29:58.342Z,55.15
2018-09-09T22:32:28.872Z,55.95
2018-09-09T22:34:59.417Z,57.87
2018-09-09T22:37:30.078Z,59.29
2018-09-09T22:40:00.751Z,60.99
2018-09-09T22:42:35.259Z,62.49
2018-09-09T22:45:08.850Z,63.10
2018-09-09T22:47:39.742Z,64.01
2018-09-09T22:50:10.334Z,64.63
2018-09-09T22:52:41.103Z,65.18
2018-09-09T22:55:12.695Z,64.89
2018-09-09T22:57:43.222Z,63.81
2018-09-09T23:00:13.766Z,62.65
2018-09-09T23:02:44.361Z,60.64
2018-09-09T23:05:15.525Z,57.83
2018-09-09T23:07:45.889Z,57.44
2018-09-09T23:10:16.644Z,56.86
2018-09-09T23:12:47.227Z,57.11
2018-09-09T23:15:22.032Z,59.00
2018-09-09T23:17:54.989Z,58.70
2018-09-09T23:20:25.492Z,59.15
2018-09-09T23:22:55.998Z,59.46
2018-09-09T23:25:26.488Z,60.06
2018-09-09T23:27:57.420Z,61.37
2018-09-09T23:30:27.957Z,62.59
2018-09-09T23:32:59.103Z,64.12
2018-09-09T23:35:29.682Z,64.39
2018-09-09T23:38:00.204Z,63.93
2018-09-09T23:40:31.002Z,65.27
2018-09-09T23:43:01.546Z,66.21
2018-09-09T23:45:32.068Z,66.91
2018-09-09T23:48:02.880Z,65.70
2018-09-09T23:50:33.430Z,65.09
2018-09-09T23:53:03.936Z,64.68
2018-09-09T23:55:34.474Z,65.35
2018-09-09T23:58:04.757Z,65.20
